Terminal Aerodrome Forecast
Issued by NWS Twin Cities, MN

Home | Current Version | Previous Version | Graphics & Text | Print | Product List | Glossary On
Versions: 1 2 3 4 5 6 7 8 9 10 11 12 13 14 15 16
000
FTUS43 KMPX 221500 AAA
TAFSTC
TAF AMD
KSTC 221528Z 2215/2312 14012KT 1 1/2SM -RA BR OVC003
      TEMPO 2216/2219 3SM -RA BR OVC004
     FM221900 13010KT 3SM -RASN BR OVC004
     FM222300 10008KT 2SM -SN BR OVC003
     FM230700 04011KT 2SM -SN BR OVC003=

USA.gov is the U.S. government's official web portal to all federal, state and local government web resources and services.